sensor_id;sensor_type;location;lat;lon;timestamp;P1;durP1;ratioP1;P2;durP2;ratioP2
73120;SDS011;61307;49.628;-1.624;2024-03-07T00:00:11;6.72;;;2.60;;
73120;SDS011;61307;49.628;-1.624;2024-03-07T00:02:43;3.75;;;2.75;;
73120;SDS011;61307;49.628;-1.624;2024-03-07T00:05:10;5.88;;;2.20;;
73120;SDS011;61307;49.628;-1.624;2024-03-07T00:07:38;5.93;;;2.92;;
73120;SDS011;61307;49.628;-1.624;2024-03-07T00:10:07;4.85;;;3.22;;
73120;SDS011;61307;49.628;-1.624;2024-03-07T00:12:35;4.68;;;2.70;;
73120;SDS011;61307;49.628;-1.624;2024-03-07T00:15:04;5.70;;;3.15;;
73120;SDS011;61307;49.628;-1.624;2024-03-07T00:17:32;4.65;;;2.85;;
73120;SDS011;61307;49.628;-1.624;2024-03-07T00:19:59;5.60;;;2.95;;
73120;SDS011;61307;49.628;-1.624;2024-03-07T00:22:27;4.70;;;2.65;;
73120;SDS011;61307;49.628;-1.624;2024-03-07T00:24:54;5.43;;;2.92;;
73120;SDS011;61307;49.628;-1.624;2024-03-07T00:27:23;4.07;;;2.70;;
73120;SDS011;61307;49.628;-1.624;2024-03-07T00:29:51;4.88;;;3.05;;
73120;SDS011;61307;49.628;-1.624;2024-03-07T00:32:19;5.13;;;3.10;;
73120;SDS011;61307;49.628;-1.624;2024-03-07T00:34:46;5.35;;;2.92;;
73120;SDS011;61307;49.628;-1.624;2024-03-07T00:37:12;3.63;;;2.53;;
73120;SDS011;61307;49.628;-1.624;2024-03-07T00:39:39;4.63;;;2.97;;
73120;SDS011;61307;49.628;-1.624;2024-03-07T00:42:06;3.63;;;2.75;;
73120;SDS011;61307;49.628;-1.624;2024-03-07T00:44:35;4.18;;;3.03;;
73120;SDS011;61307;49.628;-1.624;2024-03-07T00:47:02;4.53;;;2.65;;
73120;SDS011;61307;49.628;-1.624;2024-03-07T00:49:29;3.42;;;2.80;;
73120;SDS011;61307;49.628;-1.624;2024-03-07T00:51:56;5.70;;;3.22;;
73120;SDS011;61307;49.628;-1.624;2024-03-07T00:54:23;5.28;;;2.70;;
73120;SDS011;61307;49.628;-1.624;2024-03-07T00:56:50;4.75;;;3.05;;
73120;SDS011;61307;49.628;-1.624;2024-03-07T00:59:19;3.63;;;2.70;;
73120;SDS011;61307;49.628;-1.624;2024-03-07T01:01:47;5.40;;;2.65;;
73120;SDS011;61307;49.628;-1.624;2024-03-07T01:04:14;4.78;;;2.90;;
73120;SDS011;61307;49.628;-1.624;2024-03-07T01:06:41;4.50;;;2.88;;
73120;SDS011;61307;49.628;-1.624;2024-03-07T01:09:08;4.97;;;2.95;;
73120;SDS011;61307;49.628;-1.624;2024-03-07T01:11:39;5.10;;;3.05;;
73120;SDS011;61307;49.628;-1.624;2024-03-07T01:14:06;3.60;;;2.70;;
73120;SDS011;61307;49.628;-1.624;2024-03-07T01:16:33;4.72;;;2.90;;
73120;SDS011;61307;49.628;-1.624;2024-03-07T01:19:01;5.43;;;3.40;;
73120;SDS011;61307;49.628;-1.624;2024-03-07T01:21:30;5.50;;;2.90;;
73120;SDS011;61307;49.628;-1.624;2024-03-07T01:23:58;3.70;;;2.97;;
73120;SDS011;61307;49.628;-1.624;2024-03-07T01:26:25;5.32;;;3.08;;
73120;SDS011;61307;49.628;-1.624;2024-03-07T01:28:52;4.95;;;3.17;;
73120;SDS011;61307;49.628;-1.624;2024-03-07T01:31:20;10.27;;;3.55;;
73120;SDS011;61307;49.628;-1.624;2024-03-07T01:33:46;5.50;;;3.03;;
73120;SDS011;61307;49.628;-1.624;2024-03-07T01:36:15;4.88;;;3.33;;
73120;SDS011;61307;49.628;-1.624;2024-03-07T01:38:42;4.63;;;3.17;;
73120;SDS011;61307;49.628;-1.624;2024-03-07T01:41:09;5.25;;;3.28;;
73120;SDS011;61307;49.628;-1.624;2024-03-07T01:43:35;4.45;;;2.83;;
73120;SDS011;61307;49.628;-1.624;2024-03-07T01:46:02;5.75;;;3.08;;
73120;SDS011;61307;49.628;-1.624;2024-03-07T01:48:30;4.78;;;2.83;;
73120;SDS011;61307;49.628;-1.624;2024-03-07T01:50:58;4.32;;;2.90;;
73120;SDS011;61307;49.628;-1.624;2024-03-07T01:53:26;6.50;;;3.33;;
73120;SDS011;61307;49.628;-1.624;2024-03-07T01:55:54;5.13;;;2.95;;
73120;SDS011;61307;49.628;-1.624;2024-03-07T01:58:22;5.05;;;3.00;;
73120;SDS011;61307;49.628;-1.624;2024-03-07T02:00:50;5.10;;;3.08;;
73120;SDS011;61307;49.628;-1.624;2024-03-07T02:03:17;6.20;;;2.95;;
73120;SDS011;61307;49.628;-1.624;2024-03-07T02:05:44;5.47;;;3.10;;
73120;SDS011;61307;49.628;-1.624;2024-03-07T02:08:11;3.83;;;2.70;;
73120;SDS011;61307;49.628;-1.624;2024-03-07T02:10:41;4.63;;;2.88;;
73120;SDS011;61307;49.628;-1.624;2024-03-07T02:13:08;5.45;;;3.15;;
73120;SDS011;61307;49.628;-1.624;2024-03-07T02:15:34;3.80;;;2.92;;
73120;SDS011;61307;49.628;-1.624;2024-03-07T02:18:01;4.25;;;3.03;;
73120;SDS011;61307;49.628;-1.624;2024-03-07T02:20:28;6.15;;;2.58;;
73120;SDS011;61307;49.628;-1.624;2024-03-07T02:22:56;5.53;;;3.10;;
73120;SDS011;61307;49.628;-1.624;2024-03-07T02:25:23;4.65;;;2.80;;
73120;SDS011;61307;49.628;-1.624;2024-03-07T02:27:50;5.30;;;3.25;;
73120;SDS011;61307;49.628;-1.624;2024-03-07T02:30:17;4.55;;;3.00;;
73120;SDS011;61307;49.628;-1.624;2024-03-07T02:32:45;4.88;;;3.10;;
73120;SDS011;61307;49.628;-1.624;2024-03-07T02:35:17;4.70;;;2.83;;
73120;SDS011;61307;49.628;-1.624;2024-03-07T02:37:44;4.22;;;3.15;;
73120;SDS011;61307;49.628;-1.624;2024-03-07T02:40:13;4.03;;;2.45;;
73120;SDS011;61307;49.628;-1.624;2024-03-07T02:42:41;4.35;;;2.65;;
73120;SDS011;61307;49.628;-1.624;2024-03-07T02:45:08;4.00;;;2.88;;
73120;SDS011;61307;49.628;-1.624;2024-03-07T02:47:39;4.93;;;2.80;;
73120;SDS011;61307;49.628;-1.624;2024-03-07T02:50:09;3.50;;;2.60;;
73120;SDS011;61307;49.628;-1.624;2024-03-07T02:52:36;3.22;;;2.90;;
73120;SDS011;61307;49.628;-1.624;2024-03-07T02:55:04;3.80;;;2.53;;
73120;SDS011;61307;49.628;-1.624;2024-03-07T02:57:33;4.10;;;2.70;;
73120;SDS011;61307;49.628;-1.624;2024-03-07T03:00:00;3.75;;;2.65;;
73120;SDS011;61307;49.628;-1.624;2024-03-07T03:02:27;4.75;;;2.80;;
73120;SDS011;61307;49.628;-1.624;2024-03-07T03:04:54;3.75;;;2.75;;
73120;SDS011;61307;49.628;-1.624;2024-03-07T03:07:21;5.10;;;3.00;;
73120;SDS011;61307;49.628;-1.624;2024-03-07T03:09:48;3.33;;;2.33;;
73120;SDS011;61307;49.628;-1.624;2024-03-07T03:12:15;3.85;;;2.50;;
73120;SDS011;61307;49.628;-1.624;2024-03-07T03:14:43;3.90;;;2.45;;
73120;SDS011;61307;49.628;-1.624;2024-03-07T03:17:10;3.55;;;2.50;;
73120;SDS011;61307;49.628;-1.624;2024-03-07T03:19:37;4.70;;;2.83;;
73120;SDS011;61307;49.628;-1.624;2024-03-07T03:22:04;4.35;;;2.42;;
73120;SDS011;61307;49.628;-1.624;2024-03-07T03:24:31;3.90;;;2.75;;
73120;SDS011;61307;49.628;-1.624;2024-03-07T03:26:58;3.28;;;2.50;;
73120;SDS011;61307;49.628;-1.624;2024-03-07T03:29:24;4.53;;;2.38;;
73120;SDS011;61307;49.628;-1.624;2024-03-07T03:31:55;4.65;;;2.78;;
73120;SDS011;61307;49.628;-1.624;2024-03-07T03:34:22;4.10;;;2.53;;
73120;SDS011;61307;49.628;-1.624;2024-03-07T03:36:49;3.47;;;2.45;;
73120;SDS011;61307;49.628;-1.624;2024-03-07T03:39:16;3.95;;;2.55;;
73120;SDS011;61307;49.628;-1.624;2024-03-07T03:41:45;2.78;;;2.28;;
73120;SDS011;61307;49.628;-1.624;2024-03-07T03:44:12;4.60;;;2.60;;
73120;SDS011;61307;49.628;-1.624;2024-03-07T03:46:39;4.03;;;3.10;;
73120;SDS011;61307;49.628;-1.624;2024-03-07T03:49:08;3.47;;;2.30;;
73120;SDS011;61307;49.628;-1.624;2024-03-07T03:51:35;3.92;;;2.45;;
73120;SDS011;61307;49.628;-1.624;2024-03-07T03:54:02;4.15;;;2.65;;
73120;SDS011;61307;49.628;-1.624;2024-03-07T03:56:29;4.07;;;2.20;;
73120;SDS011;61307;49.628;-1.624;2024-03-07T03:58:57;4.53;;;2.42;;
73120;SDS011;61307;49.628;-1.624;2024-03-07T04:01:23;5.93;;;2.50;;
73120;SDS011;61307;49.628;-1.624;2024-03-07T04:03:50;3.97;;;2.83;;
73120;SDS011;61307;49.628;-1.624;2024-03-07T04:06:18;4.53;;;2.78;;
73120;SDS011;61307;49.628;-1.624;2024-03-07T04:08:45;4.65;;;2.78;;
73120;SDS011;61307;49.628;-1.624;2024-03-07T04:11:12;4.07;;;2.58;;
73120;SDS011;61307;49.628;-1.624;2024-03-07T04:13:39;4.22;;;2.50;;
73120;SDS011;61307;49.628;-1.624;2024-03-07T04:16:06;3.78;;;2.55;;
73120;SDS011;61307;49.628;-1.624;2024-03-07T04:18:33;4.57;;;2.28;;
73120;SDS011;61307;49.628;-1.624;2024-03-07T04:21:00;3.20;;;2.40;;
73120;SDS011;61307;49.628;-1.624;2024-03-07T04:23:28;3.60;;;2.70;;
73120;SDS011;61307;49.628;-1.624;2024-03-07T04:25:55;5.70;;;2.40;;
73120;SDS011;61307;49.628;-1.624;2024-03-07T04:28:22;3.58;;;2.42;;
73120;SDS011;61307;49.628;-1.624;2024-03-07T04:30:49;3.25;;;2.10;;
73120;SDS011;61307;49.628;-1.624;2024-03-07T04:33:18;4.18;;;2.47;;
73120;SDS011;61307;49.628;-1.624;2024-03-07T04:35:45;4.03;;;2.58;;
73120;SDS011;61307;49.628;-1.624;2024-03-07T04:38:12;3.83;;;2.40;;
73120;SDS011;61307;49.628;-1.624;2024-03-07T04:40:41;3.83;;;2.42;;
73120;SDS011;61307;49.628;-1.624;2024-03-07T04:43:08;4.50;;;2.50;;
73120;SDS011;61307;49.628;-1.624;2024-03-07T04:45:35;4.63;;;2.53;;
73120;SDS011;61307;49.628;-1.624;2024-03-07T04:48:02;4.57;;;2.25;;
73120;SDS011;61307;49.628;-1.624;2024-03-07T04:50:30;4.13;;;2.65;;
73120;SDS011;61307;49.628;-1.624;2024-03-07T04:52:57;4.93;;;2.63;;
73120;SDS011;61307;49.628;-1.624;2024-03-07T04:55:23;5.95;;;2.47;;
73120;SDS011;61307;49.628;-1.624;2024-03-07T04:57:52;4.78;;;2.65;;
73120;SDS011;61307;49.628;-1.624;2024-03-07T05:00:18;3.90;;;2.72;;
73120;SDS011;61307;49.628;-1.624;2024-03-07T05:02:46;5.40;;;2.55;;
73120;SDS011;61307;49.628;-1.624;2024-03-07T05:05:14;2.65;;;2.42;;
73120;SDS011;61307;49.628;-1.624;2024-03-07T05:07:45;3.33;;;2.35;;
73120;SDS011;61307;49.628;-1.624;2024-03-07T05:10:12;3.85;;;2.08;;
73120;SDS011;61307;49.628;-1.624;2024-03-07T05:12:39;4.57;;;2.15;;
73120;SDS011;61307;49.628;-1.624;2024-03-07T05:15:08;3.58;;;2.10;;
73120;SDS011;61307;49.628;-1.624;2024-03-07T05:17:35;4.55;;;2.42;;
73120;SDS011;61307;49.628;-1.624;2024-03-07T05:20:04;4.45;;;2.35;;
73120;SDS011;61307;49.628;-1.624;2024-03-07T05:22:35;3.33;;;2.40;;
73120;SDS011;61307;49.628;-1.624;2024-03-07T05:25:04;3.60;;;2.60;;
73120;SDS011;61307;49.628;-1.624;2024-03-07T05:27:31;4.50;;;2.33;;
73120;SDS011;61307;49.628;-1.624;2024-03-07T05:29:58;5.68;;;2.50;;
73120;SDS011;61307;49.628;-1.624;2024-03-07T05:32:27;4.05;;;2.05;;
73120;SDS011;61307;49.628;-1.624;2024-03-07T05:34:53;4.13;;;2.60;;
73120;SDS011;61307;49.628;-1.624;2024-03-07T05:37:20;3.72;;;2.50;;
73120;SDS011;61307;49.628;-1.624;2024-03-07T05:39:48;3.88;;;2.40;;
73120;SDS011;61307;49.628;-1.624;2024-03-07T05:42:15;3.58;;;2.22;;
73120;SDS011;61307;49.628;-1.624;2024-03-07T05:44:42;3.47;;;2.22;;
73120;SDS011;61307;49.628;-1.624;2024-03-07T05:47:10;6.70;;;2.40;;
73120;SDS011;61307;49.628;-1.624;2024-03-07T05:49:39;4.20;;;2.35;;
73120;SDS011;61307;49.628;-1.624;2024-03-07T05:52:06;6.68;;;2.33;;
73120;SDS011;61307;49.628;-1.624;2024-03-07T05:54:33;3.65;;;2.22;;
73120;SDS011;61307;49.628;-1.624;2024-03-07T05:57:00;2.80;;;2.25;;
73120;SDS011;61307;49.628;-1.624;2024-03-07T05:59:27;3.22;;;2.22;;
73120;SDS011;61307;49.628;-1.624;2024-03-07T06:01:55;4.22;;;2.55;;
73120;SDS011;61307;49.628;-1.624;2024-03-07T06:04:23;3.30;;;2.20;;
73120;SDS011;61307;49.628;-1.624;2024-03-07T06:06:51;3.38;;;2.17;;
73120;SDS011;61307;49.628;-1.624;2024-03-07T06:09:19;4.85;;;2.13;;
73120;SDS011;61307;49.628;-1.624;2024-03-07T06:11:46;4.20;;;2.20;;
73120;SDS011;61307;49.628;-1.624;2024-03-07T06:14:13;2.67;;;2.05;;
73120;SDS011;61307;49.628;-1.624;2024-03-07T06:16:41;3.05;;;2.10;;
73120;SDS011;61307;49.628;-1.624;2024-03-07T06:19:08;2.75;;;1.90;;
73120;SDS011;61307;49.628;-1.624;2024-03-07T06:21:37;3.10;;;2.20;;
73120;SDS011;61307;49.628;-1.624;2024-03-07T06:24:07;3.00;;;2.10;;
73120;SDS011;61307;49.628;-1.624;2024-03-07T06:26:36;3.25;;;2.05;;
73120;SDS011;61307;49.628;-1.624;2024-03-07T06:29:11;4.40;;;2.10;;
73120;SDS011;61307;49.628;-1.624;2024-03-07T06:31:38;3.45;;;2.20;;
73120;SDS011;61307;49.628;-1.624;2024-03-07T06:34:06;4.50;;;2.20;;
73120;SDS011;61307;49.628;-1.624;2024-03-07T06:36:33;3.08;;;2.10;;
73120;SDS011;61307;49.628;-1.624;2024-03-07T06:39:00;4.13;;;2.10;;
73120;SDS011;61307;49.628;-1.624;2024-03-07T06:41:29;3.75;;;2.20;;
73120;SDS011;61307;49.628;-1.624;2024-03-07T06:43:56;2.90;;;2.05;;
73120;SDS011;61307;49.628;-1.624;2024-03-07T06:46:23;3.45;;;1.92;;
73120;SDS011;61307;49.628;-1.624;2024-03-07T06:48:50;2.50;;;1.85;;
73120;SDS011;61307;49.628;-1.624;2024-03-07T06:51:17;4.30;;;2.30;;
73120;SDS011;61307;49.628;-1.624;2024-03-07T06:53:44;2.70;;;2.35;;
73120;SDS011;61307;49.628;-1.624;2024-03-07T06:56:11;5.80;;;2.55;;
73120;SDS011;61307;49.628;-1.624;2024-03-07T06:58:40;3.38;;;2.30;;
73120;SDS011;61307;49.628;-1.624;2024-03-07T07:01:07;2.97;;;2.35;;
73120;SDS011;61307;49.628;-1.624;2024-03-07T07:03:37;5.30;;;2.22;;
73120;SDS011;61307;49.628;-1.624;2024-03-07T07:06:04;4.35;;;2.40;;
73120;SDS011;61307;49.628;-1.624;2024-03-07T07:08:32;3.17;;;2.10;;
73120;SDS011;61307;49.628;-1.624;2024-03-07T07:10:59;4.28;;;2.55;;
73120;SDS011;61307;49.628;-1.624;2024-03-07T07:13:25;3.92;;;2.38;;
73120;SDS011;61307;49.628;-1.624;2024-03-07T07:15:54;4.70;;;2.67;;
73120;SDS011;61307;49.628;-1.624;2024-03-07T07:18:20;4.25;;;2.08;;
73120;SDS011;61307;49.628;-1.624;2024-03-07T07:20:49;3.83;;;2.30;;
73120;SDS011;61307;49.628;-1.624;2024-03-07T07:23:17;4.97;;;2.80;;
73120;SDS011;61307;49.628;-1.624;2024-03-07T07:25:45;3.95;;;2.60;;
73120;SDS011;61307;49.628;-1.624;2024-03-07T07:28:12;3.17;;;2.47;;
73120;SDS011;61307;49.628;-1.624;2024-03-07T07:30:40;3.40;;;2.60;;
73120;SDS011;61307;49.628;-1.624;2024-03-07T07:33:08;3.58;;;2.10;;
73120;SDS011;61307;49.628;-1.624;2024-03-07T07:35:35;3.20;;;2.25;;
73120;SDS011;61307;49.628;-1.624;2024-03-07T07:38:02;4.25;;;2.45;;
73120;SDS011;61307;49.628;-1.624;2024-03-07T07:40:32;4.35;;;2.40;;
73120;SDS011;61307;49.628;-1.624;2024-03-07T07:42:59;3.10;;;2.38;;
73120;SDS011;61307;49.628;-1.624;2024-03-07T07:45:26;3.25;;;2.15;;
73120;SDS011;61307;49.628;-1.624;2024-03-07T07:47:53;3.20;;;2.10;;
73120;SDS011;61307;49.628;-1.624;2024-03-07T07:50:22;2.97;;;2.10;;
73120;SDS011;61307;49.628;-1.624;2024-03-07T07:52:50;2.70;;;2.28;;
73120;SDS011;61307;49.628;-1.624;2024-03-07T07:55:19;4.07;;;2.50;;
73120;SDS011;61307;49.628;-1.624;2024-03-07T07:57:46;2.63;;;2.20;;
73120;SDS011;61307;49.628;-1.624;2024-03-07T08:00:15;6.30;;;2.72;;
73120;SDS011;61307;49.628;-1.624;2024-03-07T08:02:51;3.85;;;2.42;;
73120;SDS011;61307;49.628;-1.624;2024-03-07T08:05:19;10.77;;;2.33;;
73120;SDS011;61307;49.628;-1.624;2024-03-07T08:07:49;5.00;;;2.55;;
73120;SDS011;61307;49.628;-1.624;2024-03-07T08:10:17;4.60;;;2.20;;
73120;SDS011;61307;49.628;-1.624;2024-03-07T08:12:45;4.70;;;2.20;;
73120;SDS011;61307;49.628;-1.624;2024-03-07T08:15:13;3.10;;;2.10;;
73120;SDS011;61307;49.628;-1.624;2024-03-07T08:17:41;6.07;;;2.42;;
73120;SDS011;61307;49.628;-1.624;2024-03-07T08:20:10;6.82;;;2.40;;
73120;SDS011;61307;49.628;-1.624;2024-03-07T08:22:39;3.55;;;2.35;;
73120;SDS011;61307;49.628;-1.624;2024-03-07T08:25:07;6.22;;;2.58;;
73120;SDS011;61307;49.628;-1.624;2024-03-07T08:27:36;6.13;;;2.60;;
73120;SDS011;61307;49.628;-1.624;2024-03-07T08:30:04;3.50;;;2.50;;
73120;SDS011;61307;49.628;-1.624;2024-03-07T08:32:33;3.35;;;2.33;;
73120;SDS011;61307;49.628;-1.624;2024-03-07T08:35:02;5.45;;;2.13;;
73120;SDS011;61307;49.628;-1.624;2024-03-07T08:37:33;6.32;;;2.45;;
73120;SDS011;61307;49.628;-1.624;2024-03-07T08:40:02;4.38;;;2.30;;
73120;SDS011;61307;49.628;-1.624;2024-03-07T08:42:32;3.03;;;2.30;;
73120;SDS011;61307;49.628;-1.624;2024-03-07T08:45:00;4.18;;;2.05;;
73120;SDS011;61307;49.628;-1.624;2024-03-07T08:47:29;3.53;;;2.38;;
73120;SDS011;61307;49.628;-1.624;2024-03-07T08:49:57;4.38;;;2.38;;
73120;SDS011;61307;49.628;-1.624;2024-03-07T08:52:24;5.00;;;2.40;;
73120;SDS011;61307;49.628;-1.624;2024-03-07T08:54:51;6.50;;;2.20;;
73120;SDS011;61307;49.628;-1.624;2024-03-07T08:57:20;3.53;;;2.13;;
73120;SDS011;61307;49.628;-1.624;2024-03-07T08:59:47;6.60;;;2.60;;
73120;SDS011;61307;49.628;-1.624;2024-03-07T09:02:14;3.22;;;2.33;;
73120;SDS011;61307;49.628;-1.624;2024-03-07T09:04:41;4.28;;;2.22;;
73120;SDS011;61307;49.628;-1.624;2024-03-07T09:07:08;6.38;;;1.73;;
73120;SDS011;61307;49.628;-1.624;2024-03-07T09:09:35;8.63;;;2.50;;
73120;SDS011;61307;49.628;-1.624;2024-03-07T09:12:02;5.80;;;2.00;;
73120;SDS011;61307;49.628;-1.624;2024-03-07T09:14:31;14.38;;;2.72;;
73120;SDS011;61307;49.628;-1.624;2024-03-07T09:16:58;6.00;;;2.10;;
73120;SDS011;61307;49.628;-1.624;2024-03-07T09:19:25;8.95;;;2.30;;
73120;SDS011;61307;49.628;-1.624;2024-03-07T09:21:52;5.97;;;2.42;;
73120;SDS011;61307;49.628;-1.624;2024-03-07T09:24:20;8.88;;;2.50;;
73120;SDS011;61307;49.628;-1.624;2024-03-07T09:26:48;6.10;;;2.10;;
73120;SDS011;61307;49.628;-1.624;2024-03-07T09:29:15;4.88;;;1.98;;
73120;SDS011;61307;49.628;-1.624;2024-03-07T09:31:44;12.13;;;2.42;;
73120;SDS011;61307;49.628;-1.624;2024-03-07T09:34:11;13.95;;;2.30;;
73120;SDS011;61307;49.628;-1.624;2024-03-07T09:36:39;2.70;;;1.77;;
73120;SDS011;61307;49.628;-1.624;2024-03-07T09:39:07;5.00;;;2.20;;
73120;SDS011;61307;49.628;-1.624;2024-03-07T09:41:34;6.93;;;2.20;;
73120;SDS011;61307;49.628;-1.624;2024-03-07T09:44:02;4.50;;;2.00;;
73120;SDS011;61307;49.628;-1.624;2024-03-07T09:46:31;2.78;;;1.98;;
73120;SDS011;61307;49.628;-1.624;2024-03-07T09:48:59;8.32;;;2.30;;
73120;SDS011;61307;49.628;-1.624;2024-03-07T09:51:27;3.78;;;2.00;;
73120;SDS011;61307;49.628;-1.624;2024-03-07T09:53:56;4.63;;;2.13;;
73120;SDS011;61307;49.628;-1.624;2024-03-07T09:56:24;3.38;;;1.80;;
73120;SDS011;61307;49.628;-1.624;2024-03-07T09:58:54;16.23;;;2.28;;
73120;SDS011;61307;49.628;-1.624;2024-03-07T10:01:25;4.70;;;2.10;;
73120;SDS011;61307;49.628;-1.624;2024-03-07T10:03:58;6.53;;;1.92;;
73120;SDS011;61307;49.628;-1.624;2024-03-07T10:06:36;9.18;;;2.17;;
73120;SDS011;61307;49.628;-1.624;2024-03-07T10:09:03;11.48;;;1.92;;
73120;SDS011;61307;49.628;-1.624;2024-03-07T10:11:31;2.63;;;1.90;;
73120;SDS011;61307;49.628;-1.624;2024-03-07T10:13:58;7.40;;;2.22;;
73120;SDS011;61307;49.628;-1.624;2024-03-07T10:16:25;3.78;;;1.90;;
73120;SDS011;61307;49.628;-1.624;2024-03-07T10:18:52;9.25;;;2.10;;
73120;SDS011;61307;49.628;-1.624;2024-03-07T10:21:20;4.25;;;2.05;;
73120;SDS011;61307;49.628;-1.624;2024-03-07T10:23:49;5.82;;;2.00;;
73120;SDS011;61307;49.628;-1.624;2024-03-07T10:26:17;3.45;;;1.90;;
73120;SDS011;61307;49.628;-1.624;2024-03-07T10:28:45;4.60;;;2.33;;
73120;SDS011;61307;49.628;-1.624;2024-03-07T10:31:27;9.70;;;2.08;;
73120;SDS011;61307;49.628;-1.624;2024-03-07T10:33:57;3.75;;;1.67;;
73120;SDS011;61307;49.628;-1.624;2024-03-07T10:36:26;9.00;;;2.10;;
73120;SDS011;61307;49.628;-1.624;2024-03-07T10:38:55;12.93;;;2.08;;
73120;SDS011;61307;49.628;-1.624;2024-03-07T10:41:36;7.38;;;1.98;;
73120;SDS011;61307;49.628;-1.624;2024-03-07T10:44:11;8.27;;;1.83;;
73120;SDS011;61307;49.628;-1.624;2024-03-07T10:46:41;7.20;;;2.03;;
73120;SDS011;61307;49.628;-1.624;2024-03-07T10:49:14;5.25;;;2.10;;
73120;SDS011;61307;49.628;-1.624;2024-03-07T10:51:45;13.20;;;2.40;;
73120;SDS011;61307;49.628;-1.624;2024-03-07T10:54:20;7.60;;;2.00;;
73120;SDS011;61307;49.628;-1.624;2024-03-07T10:56:54;7.90;;;2.20;;
73120;SDS011;61307;49.628;-1.624;2024-03-07T10:59:37;2.92;;;1.92;;
73120;SDS011;61307;49.628;-1.624;2024-03-07T11:02:11;7.85;;;2.10;;
73120;SDS011;61307;49.628;-1.624;2024-03-07T11:04:47;9.00;;;2.10;;
73120;SDS011;61307;49.628;-1.624;2024-03-07T11:07:16;4.72;;;2.05;;
73120;SDS011;61307;49.628;-1.624;2024-03-07T11:09:43;10.52;;;2.08;;
73120;SDS011;61307;49.628;-1.624;2024-03-07T11:12:12;8.95;;;2.05;;
73120;SDS011;61307;49.628;-1.624;2024-03-07T11:14:40;7.40;;;1.90;;
73120;SDS011;61307;49.628;-1.624;2024-03-07T11:17:09;5.82;;;1.83;;
73120;SDS011;61307;49.628;-1.624;2024-03-07T11:19:38;6.10;;;1.92;;
73120;SDS011;61307;49.628;-1.624;2024-03-07T11:22:05;11.32;;;2.22;;
73120;SDS011;61307;49.628;-1.624;2024-03-07T11:24:41;6.28;;;1.98;;
73120;SDS011;61307;49.628;-1.624;2024-03-07T11:27:09;6.72;;;1.88;;
73120;SDS011;61307;49.628;-1.624;2024-03-07T11:29:39;4.35;;;1.70;;
73120;SDS011;61307;49.628;-1.624;2024-03-07T11:32:08;3.95;;;1.98;;
73120;SDS011;61307;49.628;-1.624;2024-03-07T11:34:37;8.10;;;1.95;;
73120;SDS011;61307;49.628;-1.624;2024-03-07T11:37:06;3.63;;;1.73;;
73120;SDS011;61307;49.628;-1.624;2024-03-07T11:39:44;13.07;;;1.63;;
73120;SDS011;61307;49.628;-1.624;2024-03-07T11:42:19;6.25;;;1.90;;
73120;SDS011;61307;49.628;-1.624;2024-03-07T11:44:50;5.88;;;1.80;;
73120;SDS011;61307;49.628;-1.624;2024-03-07T11:47:21;4.25;;;1.58;;
73120;SDS011;61307;49.628;-1.624;2024-03-07T11:49:49;5.30;;;2.08;;
73120;SDS011;61307;49.628;-1.624;2024-03-07T11:52:17;5.55;;;1.98;;
73120;SDS011;61307;49.628;-1.624;2024-03-07T11:54:46;2.42;;;1.45;;
73120;SDS011;61307;49.628;-1.624;2024-03-07T11:57:15;6.70;;;1.70;;
73120;SDS011;61307;49.628;-1.624;2024-03-07T11:59:44;3.88;;;1.80;;
73120;SDS011;61307;49.628;-1.624;2024-03-07T12:02:17;6.93;;;2.03;;
73120;SDS011;61307;49.628;-1.624;2024-03-07T12:04:46;4.30;;;1.80;;
73120;SDS011;61307;49.628;-1.624;2024-03-07T12:07:14;5.10;;;1.75;;
73120;SDS011;61307;49.628;-1.624;2024-03-07T12:09:43;4.75;;;2.00;;
73120;SDS011;61307;49.628;-1.624;2024-03-07T12:12:16;3.72;;;1.90;;
73120;SDS011;61307;49.628;-1.624;2024-03-07T12:14:46;6.95;;;1.80;;
73120;SDS011;61307;49.628;-1.624;2024-03-07T12:17:13;5.68;;;2.17;;
73120;SDS011;61307;49.628;-1.624;2024-03-07T12:19:41;5.05;;;1.88;;
73120;SDS011;61307;49.628;-1.624;2024-03-07T12:22:09;3.92;;;2.00;;
73120;SDS011;61307;49.628;-1.624;2024-03-07T12:24:38;8.25;;;2.08;;
73120;SDS011;61307;49.628;-1.624;2024-03-07T12:27:08;5.82;;;1.85;;
73120;SDS011;61307;49.628;-1.624;2024-03-07T12:29:37;4.63;;;2.00;;
73120;SDS011;61307;49.628;-1.624;2024-03-07T12:32:07;3.97;;;1.98;;
73120;SDS011;61307;49.628;-1.624;2024-03-07T12:34:36;8.48;;;1.92;;
73120;SDS011;61307;49.628;-1.624;2024-03-07T12:37:06;5.40;;;1.83;;
73120;SDS011;61307;49.628;-1.624;2024-03-07T12:39:33;4.20;;;2.10;;
73120;SDS011;61307;49.628;-1.624;2024-03-07T12:42:04;4.57;;;2.55;;
73120;SDS011;61307;49.628;-1.624;2024-03-07T12:44:42;4.68;;;2.00;;
73120;SDS011;61307;49.628;-1.624;2024-03-07T12:47:11;3.17;;;2.25;;
73120;SDS011;61307;49.628;-1.624;2024-03-07T12:49:38;4.43;;;2.30;;
73120;SDS011;61307;49.628;-1.624;2024-03-07T12:52:05;4.03;;;1.85;;
73120;SDS011;61307;49.628;-1.624;2024-03-07T12:54:34;3.70;;;2.10;;
73120;SDS011;61307;49.628;-1.624;2024-03-07T12:57:02;4.85;;;2.17;;
73120;SDS011;61307;49.628;-1.624;2024-03-07T12:59:31;5.50;;;2.20;;
73120;SDS011;61307;49.628;-1.624;2024-03-07T13:01:59;3.38;;;1.95;;
73120;SDS011;61307;49.628;-1.624;2024-03-07T13:04:28;3.42;;;2.00;;
73120;SDS011;61307;49.628;-1.624;2024-03-07T13:06:56;5.30;;;2.40;;
73120;SDS011;61307;49.628;-1.624;2024-03-07T13:09:29;5.55;;;2.22;;
73120;SDS011;61307;49.628;-1.624;2024-03-07T13:11:56;12.55;;;2.17;;
73120;SDS011;61307;49.628;-1.624;2024-03-07T13:14:25;5.40;;;2.10;;
73120;SDS011;61307;49.628;-1.624;2024-03-07T13:16:55;8.60;;;2.10;;
73120;SDS011;61307;49.628;-1.624;2024-03-07T13:19:25;9.45;;;2.17;;
73120;SDS011;61307;49.628;-1.624;2024-03-07T13:21:52;4.97;;;1.70;;
73120;SDS011;61307;49.628;-1.624;2024-03-07T13:24:19;8.38;;;2.05;;
73120;SDS011;61307;49.628;-1.624;2024-03-07T13:26:46;5.63;;;2.05;;
73120;SDS011;61307;49.628;-1.624;2024-03-07T13:29:14;7.32;;;2.40;;
73120;SDS011;61307;49.628;-1.624;2024-03-07T13:31:42;5.50;;;2.28;;
73120;SDS011;61307;49.628;-1.624;2024-03-07T13:34:11;12.65;;;2.42;;
73120;SDS011;61307;49.628;-1.624;2024-03-07T13:36:41;16.38;;;2.38;;
73120;SDS011;61307;49.628;-1.624;2024-03-07T13:39:09;11.75;;;2.25;;
73120;SDS011;61307;49.628;-1.624;2024-03-07T13:41:36;9.15;;;2.10;;
73120;SDS011;61307;49.628;-1.624;2024-03-07T13:44:04;6.55;;;2.50;;
73120;SDS011;61307;49.628;-1.624;2024-03-07T13:46:31;7.95;;;1.90;;
73120;SDS011;61307;49.628;-1.624;2024-03-07T13:48:58;12.27;;;2.40;;
73120;SDS011;61307;49.628;-1.624;2024-03-07T13:51:32;9.98;;;2.30;;
73120;SDS011;61307;49.628;-1.624;2024-03-07T13:54:02;6.47;;;2.05;;
73120;SDS011;61307;49.628;-1.624;2024-03-07T13:56:52;6.13;;;1.90;;
73120;SDS011;61307;49.628;-1.624;2024-03-07T13:59:42;8.52;;;2.20;;
73120;SDS011;61307;49.628;-1.624;2024-03-07T14:05:38;9.63;;;2.30;;
73120;SDS011;61307;49.628;-1.624;2024-03-07T14:24:30;12.30;;;2.55;;
73120;SDS011;61307;49.628;-1.624;2024-03-07T14:27:49;11.43;;;2.53;;
73120;SDS011;61307;49.628;-1.624;2024-03-07T14:30:21;10.05;;;2.20;;
73120;SDS011;61307;49.628;-1.624;2024-03-07T14:33:05;9.02;;;2.20;;
73120;SDS011;61307;49.628;-1.624;2024-03-07T14:35:35;18.27;;;2.40;;
73120;SDS011;61307;49.628;-1.624;2024-03-07T14:38:26;25.67;;;2.05;;
73120;SDS011;61307;49.628;-1.624;2024-03-07T14:40:55;8.02;;;2.33;;
73120;SDS011;61307;49.628;-1.624;2024-03-07T14:43:25;10.60;;;1.85;;
73120;SDS011;61307;49.628;-1.624;2024-03-07T14:45:54;9.75;;;2.25;;
73120;SDS011;61307;49.628;-1.624;2024-03-07T14:48:21;14.10;;;2.60;;
73120;SDS011;61307;49.628;-1.624;2024-03-07T14:50:49;15.27;;;2.33;;
73120;SDS011;61307;49.628;-1.624;2024-03-07T14:53:16;16.20;;;2.20;;
73120;SDS011;61307;49.628;-1.624;2024-03-07T14:55:45;6.22;;;2.25;;
73120;SDS011;61307;49.628;-1.624;2024-03-07T14:58:12;7.25;;;1.80;;
73120;SDS011;61307;49.628;-1.624;2024-03-07T15:00:43;7.55;;;1.88;;